Latest Weather Observations for Lameroo AWS

IDS60801

Issued at 2:42 pm CDT Sunday 16 December 2018 (issued every 10 minutes, with the page automatically refreshed every 10 minutes)

About weather observations | Map of weather stations | Latest weather observations for SA | Other Formats
Station Details ID: 025562 Name: AUSTIN PLAINS Lat: -35.38 Lon: 140.54 Height: 110.08 m
Data from the previous 72 hours. | See also: Recent months at Lameroo AWS
Date/Time
CDT
Temp
°C
App
Temp
°C
Dew
Point
°C
Rel
Hum
%
Delta-T
°C
Wind Press
QNH
hPa
Press
MSL
hPa
Rain since
9am
mm
Dir  Spd
km/h
Gust
km/h
Spd
kts
Gust
kts
16/02:30pm 23.0 20.6 16.3 66 4.1 WSW 24 33 13 18 1006.4 1006.0 0.4
16/02:00pm 21.1 18.8 17.7 81 2.1 WSW 26 32 14 17 1006.7 1006.3 0.4
16/01:30pm 19.6 17.7 16.8 84 1.7 WSW 22 30 12 16 1007.0 1006.6 0.4
16/01:00pm 20.1 18.4 16.3 79 2.3 WSW 20 26 11 14 1007.2 1006.8 0.2
16/12:30pm 19.8 17.4 16.4 81 2.1 WSW 24 30 13 16 1006.9 1006.5 0.2
16/12:00pm 19.0 18.0 17.5 91 0.9 W 19 26 10 14 1006.9 1006.5 0.2
16/11:30am 17.9 15.5 16.4 91 0.9 WSW 24 30 13 16 1006.9 1006.5 0.2
16/11:00am 17.7 16.1 16.4 92 0.8 WSW 20 24 11 13 1006.9 1006.5 0.0
16/10:30am 18.1 16.4 15.7 86 1.4 WSW 19 24 10 13 1006.6 1006.2 0.0
16/10:00am 18.2 16.4 16.0 87 1.3 WSW 20 28 11 15 1006.3 1005.9 0.0
16/09:30am 18.3 15.6 15.7 85 1.5 WSW 24 32 13 17 1006.2 1005.8 0.0
16/09:00am 18.4 15.8 15.8 85 1.5 W 24 32 13 17 1006.0 1005.6 1.4
16/08:30am 17.9 15.9 16.4 91 0.9 W 22 30 12 16 1005.7 1005.3 1.4
16/08:00am 17.3 - - - - WNW 26 35 14 19 1005.4 1005.0 1.4
16/07:30am 17.1 - - - - W 22 28 12 15 1005.2 1004.8 1.4
16/07:00am 16.6 - - - - W 20 26 11 14 1005.1 1004.7 1.4
16/06:30am 16.6 - - - - W 20 26 11 14 1004.7 1004.3 1.4
16/06:00am 16.5 - - - - W 17 20 9 11 1004.5 1004.1 1.4
16/05:30am 16.6 - - - - W 13 17 7 9 1004.1 1003.8 1.4
16/05:00am 16.5 - - - - WNW 13 17 7 9 1004.2 1003.9 0.8
16/04:30am 16.4 15.8 15.6 95 0.5 WNW 13 15 7 8 1003.7 1003.4 0.2
16/04:00am 16.4 16.0 15.1 92 0.8 WNW 11 15 6 8 1003.8 1003.5 0.2
16/03:30am 16.4 15.5 14.9 91 0.9 WNW 13 17 7 9 1003.6 1003.3 0.2
16/03:00am 16.3 14.7 15.0 92 0.8 WNW 17 22 9 12 1003.6 1003.3 0.2
16/02:30am 16.3 15.8 15.0 92 0.8 WNW 11 13 6 7 1003.9 1003.6 0.2
16/02:00am 16.3 15.8 15.0 92 0.8 W 11 13 6 7 1003.9 1003.6 0.2
16/01:30am 16.2 16.0 14.7 91 0.9 W 9 11 5 6 1004.2 1003.9 0.2
16/01:00am 16.1 15.5 14.5 90 0.9 NW 11 11 6 6 1004.2 1003.9 0.2
16/12:30am 16.0 15.3 14.4 90 0.9 WNW 11 13 6 7 1004.1 1003.8 0.2
16/12:00am 16.1 16.1 14.3 89 1.0 W 7 11 4 6 1004.6 1004.2 0.2
 
Date/Time
CDT
Temp
°C
App
Temp
°C
Dew
Point
°C
Rel
Hum
%
Delta-T
°C
Wind Press
QNH
hPa
Press
MSL
hPa
Rain since
9am
mm
Dir  Spd
km/h
Gust
km/h
Spd
kts
Gust
kts
15/11:30pm 16.0 15.3 14.2 89 1.0 NNW 11 13 6 7 1004.1 1003.8 0.2
15/11:00pm 16.3 16.3 14.1 87 1.3 N 7 9 4 5 1004.4 1004.0 0.2
15/10:30pm 16.1 16.0 13.8 86 1.3 NE 7 9 4 5 1004.4 1004.0 0.2
15/10:00pm 16.5 15.2 13.8 84 1.5 ENE 13 17 7 9 1003.8 1003.5 0.2
15/09:30pm 17.0 15.7 13.7 81 1.9 ENE 13 19 7 10 1003.6 1003.3 0.2
15/09:00pm 17.8 18.0 14.3 80 2.0 NE 6 7 3 4 1003.7 1003.4 0.2
15/08:30pm 17.8 17.2 14.7 82 1.8 ESE 11 13 6 7 1003.5 1003.2 0.2
15/08:00pm 17.6 16.6 14.7 83 1.7 SE 13 17 7 9 1003.5 1003.2 0.2
15/07:30pm 17.4 15.7 14.7 84 1.6 S 17 22 9 12 1003.6 1003.3 0.2
15/07:00pm 17.5 13.1 14.0 80 2.0 S 30 37 16 20 1003.3 1003.0 0.0
15/06:30pm 20.5 14.4 11.7 57 4.9 S 35 48 19 26 1002.9 1002.6 0.0
15/06:00pm 22.6 18.4 12.3 52 5.9 SW 26 37 14 20 1001.9 1001.5 0.0
15/05:30pm 25.0 22.0 6.2 30 9.8 W 11 22 6 12 1001.4 1001.0 0.0
15/05:00pm 25.5 22.4 5.7 28 10.2 WNW 11 22 6 12 1001.4 1001.0 0.0
15/04:30pm 26.0 23.2 7.1 30 10.1 NNW 11 24 6 13 1001.6 1001.2 0.0
15/04:00pm 25.2 22.4 6.9 31 9.6 NW 11 19 6 10 1001.9 1001.5 0.0
15/03:30pm 24.5 21.4 7.2 33 9.1 NNE 13 19 7 10 1002.3 1001.9 0.0
15/03:00pm 23.3 19.9 7.8 37 8.2 NE 15 20 8 11 1003.0 1002.7 0.0
15/02:30pm 23.2 19.4 7.7 37 8.2 NE 17 24 9 13 1003.5 1003.2 0.0
15/02:00pm 23.6 19.9 8.1 37 8.2 NE 17 24 9 13 1004.0 1003.7 0.0
15/01:30pm 22.1 18.3 7.5 39 7.6 NE 17 26 9 14 1004.4 1004.0 0.0
15/01:00pm 23.0 20.4 6.3 34 8.6 SW 9 17 5 9 1004.5 1004.1 0.0
15/12:30pm 23.6 21.8 7.3 35 8.6 NNE 6 9 3 5 1004.5 1004.1 0.0
15/12:00pm 23.9 22.7 7.9 36 8.5 N 4 7 2 4 1004.7 1004.3 0.0
15/11:30am 22.7 20.0 7.3 37 8.1 E 11 17 6 9 1005.0 1004.6 0.0
15/11:00am 22.4 20.2 6.2 35 8.3 NNE 7 15 4 8 1005.1 1004.7 0.0
15/10:30am 21.3 19.3 6.4 38 7.6 NE 6 13 3 7 1005.4 1005.0 0.0
15/10:00am 20.8 19.2 8.1 44 6.6 E 6 13 3 7 1005.6 1005.2 0.0
15/09:30am 19.4 17.9 8.4 49 5.8 ESE 6 7 3 4 1006.2 1005.8 0.0
15/09:00am 18.4 17.2 9.5 56 4.7 SE 6 9 3 5 1006.2 1005.8 0.2
15/08:30am 16.9 15.6 9.3 61 4.0 SSE 6 9 3 5 1006.0 1005.6 0.2
15/08:00am 15.9 14.2 10.0 68 3.1 SSE 9 13 5 7 1005.7 1005.3 0.2
15/07:30am 15.2 13.2 10.2 72 2.6 SE 11 13 6 7 1005.4 1005.0 0.2
15/07:00am 13.8 11.9 10.4 80 1.8 SSE 11 15 6 8 1005.0 1004.6 0.2
15/06:30am 12.0 10.2 9.4 84 1.3 SSE 9 9 5 5 1004.8 1004.4 0.2
15/06:00am 11.1 8.4 8.8 86 1.2 SSE 13 13 7 7 1004.4 1004.0 0.2
15/05:30am 11.2 8.1 8.8 85 1.2 S 15 15 8 8 1004.2 1003.9 0.2
15/05:00am 11.3 9.0 8.9 85 1.2 S 11 13 6 7 1004.4 1004.0 0.2
15/04:30am 11.4 9.5 9.0 85 1.2 SE 9 11 5 6 1004.2 1003.9 0.2
15/04:00am 11.5 8.8 8.9 84 1.3 SSE 13 13 7 7 1004.1 1003.8 0.2
15/03:30am 12.0 9.4 9.2 83 1.4 SSE 13 15 7 8 1004.0 1003.7 0.2
15/03:00am 12.2 9.9 9.0 81 1.6 SE 11 11 6 6 1004.4 1004.0 0.2
15/02:30am 13.1 11.3 9.5 79 1.9 SE 9 11 5 6 1004.8 1004.4 0.2
15/02:00am 13.1 11.4 9.7 80 1.7 SSE 9 11 5 6 1004.8 1004.4 0.2
15/01:30am 13.3 10.9 10.1 81 1.7 SSE 13 15 7 8 1005.1 1004.7 0.2
15/01:00am 14.2 12.5 10.0 76 2.2 SSE 9 9 5 5 1005.2 1004.8 0.2
15/12:30am 15.4 13.5 10.4 72 2.7 ESE 11 13 6 7 1005.2 1004.8 0.2
15/12:00am 15.9 14.9 10.4 70 2.9 SE 6 7 3 4 1005.5 1005.1 0.2
 
Date/Time
CDT
Temp
°C
App
Temp
°C
Dew
Point
°C
Rel
Hum
%
Delta-T
°C
Wind Press
QNH
hPa
Press
MSL
hPa
Rain since
9am
mm
Dir  Spd
km/h
Gust
km/h
Spd
kts
Gust
kts
14/11:30pm 15.3 14.3 11.1 76 2.3 SW 7 9 4 5 1005.9 1005.5 0.2
14/11:00pm 15.6 14.1 10.6 72 2.7 SSW 9 15 5 8 1006.0 1005.6 0.2
14/10:30pm 15.6 14.9 11.4 76 2.3 E 6 7 3 4 1005.6 1005.2 0.2
14/10:00pm 15.4 14.3 10.6 73 2.5 ENE 7 9 4 5 1005.4 1005.0 0.2
14/09:30pm 15.4 13.4 10.0 70 2.8 ENE 11 13 6 7 1005.2 1004.8 0.2
14/09:00pm 16.7 13.9 9.9 64 3.6 E 15 17 8 9 1005.4 1005.0 0.2
14/08:30pm 17.5 15.1 9.9 61 4.0 E 13 15 7 8 1004.9 1004.5 0.2
14/08:00pm 19.1 14.9 8.1 49 5.7 E 20 26 11 14 1004.2 1003.9 0.2
14/07:30pm 20.5 15.8 9.1 48 6.1 E 24 30 13 16 1003.7 1003.4 0.2
14/07:00pm 21.0 15.1 8.9 46 6.4 E 30 35 16 19 1003.3 1003.0 0.2
14/06:30pm 21.9 15.1 7.7 40 7.5 ESE 33 43 18 23 1002.8 1002.5 0.2
14/06:00pm 22.0 15.3 8.2 41 7.3 ESE 33 44 18 24 1002.4 1002.0 0.2
14/05:30pm 22.2 15.0 7.6 39 7.7 ESE 35 50 19 27 1002.0 1001.6 0.2
14/05:00pm 22.2 15.2 8.3 41 7.4 SE 35 50 19 27 1002.1 1001.7 0.2
14/04:30pm 22.5 15.7 7.5 38 7.9 SE 33 48 18 26 1001.6 1001.2 0.2
14/04:00pm 22.1 15.7 9.3 44 6.9 SE 33 44 18 24 1001.9 1001.5 0.2
14/03:33pm 21.9 16.2 9.8 46 6.6 ESE 30 50 16 27 1001.9 1001.5 0.2
14/03:30pm 21.7 16.2 9.3 45 6.7 ESE 28 37 15 20 1002.1 1001.7 0.2
14/03:00pm 22.0 15.8 9.5 45 6.8 SE 32 43 17 23 1002.0 1001.6 0.2
14/02:30pm 21.3 14.1 9.2 46 6.5 SE 37 50 20 27 1001.9 1001.5 0.0
14/02:00pm 20.7 14.1 9.9 50 5.8 SE 35 46 19 25 1002.0 1001.6 0.0
14/01:30pm 20.1 12.7 9.9 52 5.5 SE 39 50 21 27 1002.2 1001.8 0.0
14/01:00pm 20.2 12.7 10.9 55 5.1 SE 41 54 22 29 1002.4 1002.0 0.0
14/12:30pm 19.4 12.3 10.9 58 4.7 SE 39 52 21 28 1002.5 1002.1 0.0
14/12:00pm 18.8 11.4 9.8 56 4.8 SE 39 48 21 26 1002.4 1002.0 0.0
14/11:30am 18.0 10.1 9.4 57 4.6 SE 41 52 22 28 1002.1 1001.7 0.0
14/11:00am 18.5 11.7 10.6 60 4.3 SE 37 50 20 27 1002.4 1002.0 0.0
14/10:30am 17.7 11.3 10.6 63 3.8 SE 35 46 19 25 1002.3 1001.9 0.0
14/10:00am 17.0 11.5 11.7 71 2.9 SE 32 43 17 23 1002.2 1001.8 0.0
14/09:30am 16.4 10.6 11.6 73 2.6 SE 33 44 18 24 1001.9 1001.5 0.0
14/09:00am 16.2 10.2 12.0 76 2.3 SE 35 46 19 25 1002.0 1001.6 14.4
14/08:30am 15.2 10.1 12.0 81 1.8 SE 30 39 16 21 1001.5 1001.1 14.4
14/08:00am 14.7 9.9 11.8 83 1.6 SE 28 35 15 19 1001.2 1000.8 14.4
14/07:30am 14.4 10.9 12.3 87 1.2 SSE 22 28 12 15 1000.6 1000.2 14.4
14/07:00am 13.9 10.5 12.5 91 0.8 SE 22 32 12 17 1000.3 999.9 14.4
14/06:30am 13.8 10.7 12.2 90 0.9 SSE 20 28 11 15 999.9 999.5 14.4
14/06:00am 13.8 9.9 12.0 89 1.0 SSE 24 30 13 16 999.0 998.6 14.4
14/05:30am 13.6 10.7 12.2 91 0.8 SSE 19 22 10 12 998.6 998.2 14.4
14/05:00am 13.9 - - - - S 22 28 12 15 997.8 997.4 14.4
14/04:30am 13.6 - - - - SW 17 20 9 11 997.0 996.6 14.2
14/04:00am 14.6 - - - - S 33 44 18 24 997.8 997.4 13.6
14/03:57am 14.6 - - - - SSW 33 46 18 25 997.5 997.1 12.4
14/03:30am 14.2 - - - - SW 39 50 21 27 996.7 996.3 10.8
14/03:00am 13.6 - - - - SW 37 56 20 30 996.9 996.5 8.8
14/02:30am 13.0 - - - - SW 41 56 22 30 997.6 997.2 8.8
14/02:00am 12.6 - - - - SW 43 57 23 31 998.2 997.8 8.6
14/01:30am 12.3 - - - - SW 43 61 23 33 999.2 998.8 8.6
14/01:01am 12.2 - - - - SW 48 69 26 37 999.4 999.0 8.6
14/01:00am 12.1 - - - - SW 50 69 27 37 999.4 999.0 8.6
14/12:30am 12.1 - - - - SW 46 67 25 36 999.8 999.4 8.4
14/12:18am 12.0 - - - - SW 44 63 24 34 1000.4 1000.0 8.4
14/12:00am 12.0 - - - - SW 48 63 26 34 1001.0 1000.6 8.2
 
Date/Time
CDT
Temp
°C
App
Temp
°C
Dew
Point
°C
Rel
Hum
%
Delta-T
°C
Wind Press
QNH
hPa
Press
MSL
hPa
Rain since
9am
mm
Dir  Spd
km/h
Gust
km/h
Spd
kts
Gust
kts
13/11:30pm 11.9 - - - - SW 44 59 24 32 1001.6 1001.2 7.0
13/11:00pm 11.9 - - - - SW 46 59 25 32 1002.1 1001.7 6.2
13/10:30pm 11.9 - - - - SW 44 69 24 37 1002.6 1002.3 6.2
13/10:00pm 11.9 - - - - SW 44 65 24 35 1002.1 1001.7 6.2
13/09:39pm 11.8 - - - - SW 44 63 24 34 1002.9 1002.6 6.0
13/09:30pm 11.8 - - - - SW 44 57 24 31 1002.8 1002.5 5.8
13/09:06pm 11.8 - - - - SW 43 65 23 35 1003.3 1003.0 5.0
13/09:00pm 11.8 - - - - SW 41 54 22 29 1003.4 1003.1 5.0
13/08:38pm 11.8 4.0 11.0 95 0.4 SW 43 61 23 33 1003.7 1003.4 4.8
13/08:30pm 11.8 3.7 10.7 93 0.6 SW 44 61 24 33 1003.7 1003.4 4.4
13/08:23pm 11.7 3.8 10.8 94 0.5 SW 43 61 23 33 1003.8 1003.5 4.2
13/08:00pm 11.7 3.7 10.6 93 0.6 SW 43 56 23 30 1003.9 1003.6 4.0
13/07:33pm 11.6 3.3 10.2 91 0.7 SW 44 65 24 35 1003.8 1003.5 3.8
13/07:30pm 11.7 3.7 10.3 91 0.7 SW 43 56 23 30 1003.9 1003.6 3.8
13/07:13pm 11.7 3.1 10.3 91 0.7 SW 46 69 25 37 1003.9 1003.6 3.6
13/07:00pm 11.7 2.7 10.1 90 0.8 SW 48 65 26 35 1003.8 1003.5 3.0
13/06:39pm 12.1 3.8 10.2 88 1.0 SW 44 63 24 34 1003.7 1003.4 2.2
13/06:30pm 12.4 4.2 10.3 87 1.1 SW 44 59 24 32 1003.7 1003.4 2.2
13/06:00pm 13.4 5.0 9.6 78 2.0 SW 44 70 24 38 1003.3 1003.0 2.2
13/05:48pm 13.3 3.8 9.7 79 1.9 SW 50 70 27 38 1003.4 1003.1 2.2
13/05:30pm 14.3 4.2 8.9 70 2.8 SW 52 65 28 35 1002.9 1002.6 2.2
13/05:00pm 14.5 4.3 8.7 68 2.9 SW 52 72 28 39 1003.2 1002.9 2.2
13/04:35pm 16.0 5.8 8.7 62 3.7 SW 52 70 28 38 1002.6 1002.3 2.2
13/04:30pm 16.0 6.2 8.7 62 3.8 SW 50 69 27 37 1002.8 1002.5 2.2
13/04:00pm 17.1 5.8 7.2 52 5.0 SW 56 80 30 43 1002.2 1001.8 2.2
13/03:30pm 18.1 7.7 7.8 51 5.3 SW 52 70 28 38 1002.3 1001.9 2.2
13/03:05pm 18.2 8.5 9.0 55 4.8 SSW 50 70 27 38 1002.3 1001.9 2.0
13/03:00pm 17.9 7.4 9.0 56 4.7 SW 54 70 29 38 1002.4 1002.0 2.0
13/02:54pm 17.6 7.7 8.2 54 4.8 SW 50 69 27 37 1002.1 1001.7 2.0

Other Formats:

Comma delimited format used in spreadsheet applications
http://www.bom.gov.au/fwo/IDS60801/IDS60801.94690.axf

JavaScript Object Notation format (JSON) in row-major order
http://www.bom.gov.au/fwo/IDS60801/IDS60801.94690.json